NCAR-RAP Real-Time Weather Data

Output produced by METARs form (25 August 2019  22:50 UTC)
found at http://weather.rap.ucar.edu/surface/
 
RJTT 252230Z 01008KT 9999 FEW015 SCT025 BKN035 25/21 Q1013 NOSIG RMK 1CU015 4CU025 6SC035 A2991
 
RJAA 252230Z 04005KT 9999 FEW020 SCT025 BKN070 25/21 Q1013 NOSIG RMK 1CU020 3CU025 6AC070 A2992
 
 
RJAH 252200Z 03004KT 9999 FEW020 BKN070 22/20 Q1012
 
RJGG 252230Z 31007KT 9999 FEW020 25/20 Q1012 NOSIG
 
RJNK 252200Z 11004KT 9999 FEW015 22/18 Q1013
 
RJNT 252200Z 21003KT 180V240 9999 FEW020 22/18 Q1014
 
 
 
 
 
 
 
 
 
 
 
 
RJTT 252230Z 01008KT 9999 FEW015 SCT025 BKN035 25/21 Q1013 NOSIG RMK 1CU015 4CU025 6SC035 A2991
 
 
RJTY 252211Z AUTO 04005KT 10SM SCT029 23/20 A2997 RMK AO2 SLP146 FZRANO $